sensor_id;sensor_type;location;lat;lon;timestamp;temperature;humidity
2767;DHT22;1391;46.742;11.636;2022-10-31T00:01:10;7.10;99.90
2767;DHT22;1391;46.742;11.636;2022-10-31T00:03:39;7.10;99.90
2767;DHT22;1391;46.742;11.636;2022-10-31T00:06:07;7.40;99.90
2767;DHT22;1391;46.742;11.636;2022-10-31T00:08:34;7.10;99.90
2767;DHT22;1391;46.742;11.636;2022-10-31T00:11:01;7.00;99.90
2767;DHT22;1391;46.742;11.636;2022-10-31T00:13:29;7.20;99.90
2767;DHT22;1391;46.742;11.636;2022-10-31T00:15:56;7.40;99.90
2767;DHT22;1391;46.742;11.636;2022-10-31T00:18:23;7.40;99.90
2767;DHT22;1391;46.742;11.636;2022-10-31T00:20:59;7.50;99.90
2767;DHT22;1391;46.742;11.636;2022-10-31T00:23:27;7.70;99.90
2767;DHT22;1391;46.742;11.636;2022-10-31T00:25:59;7.60;99.90
2767;DHT22;1391;46.742;11.636;2022-10-31T00:28:27;7.40;99.90
2767;DHT22;1391;46.742;11.636;2022-10-31T00:30:58;7.40;99.90
2767;DHT22;1391;46.742;11.636;2022-10-31T00:33:27;7.40;99.90
2767;DHT22;1391;46.742;11.636;2022-10-31T00:35:54;7.10;99.90
2767;DHT22;1391;46.742;11.636;2022-10-31T00:38:23;7.10;99.90
2767;DHT22;1391;46.742;11.636;2022-10-31T00:40:51;7.10;99.90
2767;DHT22;1391;46.742;11.636;2022-10-31T00:43:18;7.10;99.90
2767;DHT22;1391;46.742;11.636;2022-10-31T00:45:46;7.10;99.90
2767;DHT22;1391;46.742;11.636;2022-10-31T00:48:13;7.10;99.90
2767;DHT22;1391;46.742;11.636;2022-10-31T00:50:40;7.10;99.90
2767;DHT22;1391;46.742;11.636;2022-10-31T00:53:08;7.10;99.90
2767;DHT22;1391;46.742;11.636;2022-10-31T00:55:37;7.10;99.90
2767;DHT22;1391;46.742;11.636;2022-10-31T00:58:04;7.10;99.90
2767;DHT22;1391;46.742;11.636;2022-10-31T01:00:31;7.40;99.90
2767;DHT22;1391;46.742;11.636;2022-10-31T01:02:58;7.10;99.90
2767;DHT22;1391;46.742;11.636;2022-10-31T01:05:25;7.40;99.90
2767;DHT22;1391;46.742;11.636;2022-10-31T01:07:53;7.10;99.90
2767;DHT22;1391;46.742;11.636;2022-10-31T01:10:20;7.00;99.90
2767;DHT22;1391;46.742;11.636;2022-10-31T01:12:49;7.10;99.90
2767;DHT22;1391;46.742;11.636;2022-10-31T01:15:18;7.00;99.90
2767;DHT22;1391;46.742;11.636;2022-10-31T01:17:47;7.10;99.90
2767;DHT22;1391;46.742;11.636;2022-10-31T01:20:16;6.80;99.90
2767;DHT22;1391;46.742;11.636;2022-10-31T01:22:43;7.10;99.90
2767;DHT22;1391;46.742;11.636;2022-10-31T01:25:11;6.80;99.90
2767;DHT22;1391;46.742;11.636;2022-10-31T01:27:38;6.80;99.90
2767;DHT22;1391;46.742;11.636;2022-10-31T01:30:08;6.80;99.90
2767;DHT22;1391;46.742;11.636;2022-10-31T01:32:36;7.10;99.90
2767;DHT22;1391;46.742;11.636;2022-10-31T01:35:03;6.80;99.90
2767;DHT22;1391;46.742;11.636;2022-10-31T01:37:31;6.80;99.90
2767;DHT22;1391;46.742;11.636;2022-10-31T01:39:58;7.10;99.90
2767;DHT22;1391;46.742;11.636;2022-10-31T01:42:26;7.10;99.90
2767;DHT22;1391;46.742;11.636;2022-10-31T01:44:58;6.70;99.90
2767;DHT22;1391;46.742;11.636;2022-10-31T01:47:38;6.80;99.90
2767;DHT22;1391;46.742;11.636;2022-10-31T01:50:14;6.80;99.90
2767;DHT22;1391;46.742;11.636;2022-10-31T01:52:53;6.80;99.90
2767;DHT22;1391;46.742;11.636;2022-10-31T01:55:25;6.80;99.90
2767;DHT22;1391;46.742;11.636;2022-10-31T01:57:57;6.80;99.90
2767;DHT22;1391;46.742;11.636;2022-10-31T02:00:25;6.70;99.90
2767;DHT22;1391;46.742;11.636;2022-10-31T02:02:54;6.80;99.90
2767;DHT22;1391;46.742;11.636;2022-10-31T02:05:25;6.80;99.90
2767;DHT22;1391;46.742;11.636;2022-10-31T02:07:58;6.80;99.90
2767;DHT22;1391;46.742;11.636;2022-10-31T02:10:29;6.40;99.90
2767;DHT22;1391;46.742;11.636;2022-10-31T02:12:58;6.30;99.90
2767;DHT22;1391;46.742;11.636;2022-10-31T02:15:28;6.30;99.90
2767;DHT22;1391;46.742;11.636;2022-10-31T02:17:57;7.00;99.90
2767;DHT22;1391;46.742;11.636;2022-10-31T02:20:25;6.90;99.90
2767;DHT22;1391;46.742;11.636;2022-10-31T02:23:16;6.40;99.90
2767;DHT22;1391;46.742;11.636;2022-10-31T02:26:13;6.80;99.90
2767;DHT22;1391;46.742;11.636;2022-10-31T02:32:36;6.50;99.90
2767;DHT22;1391;46.742;11.636;2022-10-31T02:35:15;6.40;99.90
2767;DHT22;1391;46.742;11.636;2022-10-31T02:37:51;6.70;99.90
2767;DHT22;1391;46.742;11.636;2022-10-31T02:40:26;6.40;99.90
2767;DHT22;1391;46.742;11.636;2022-10-31T02:43:02;6.00;99.90
2767;DHT22;1391;46.742;11.636;2022-10-31T02:45:36;6.40;99.90
2767;DHT22;1391;46.742;11.636;2022-10-31T02:48:10;6.30;99.90
2767;DHT22;1391;46.742;11.636;2022-10-31T02:50:41;6.90;99.90
2767;DHT22;1391;46.742;11.636;2022-10-31T02:53:14;6.40;99.90
2767;DHT22;1391;46.742;11.636;2022-10-31T02:55:51;6.30;99.90
2767;DHT22;1391;46.742;11.636;2022-10-31T02:58:26;6.30;99.90
2767;DHT22;1391;46.742;11.636;2022-10-31T03:01:16;6.30;99.90
2767;DHT22;1391;46.742;11.636;2022-10-31T03:04:07;6.70;99.90
2767;DHT22;1391;46.742;11.636;2022-10-31T03:06:47;6.40;99.90
2767;DHT22;1391;46.742;11.636;2022-10-31T03:09:23;6.00;99.90
2767;DHT22;1391;46.742;11.636;2022-10-31T03:11:58;6.40;99.90
2767;DHT22;1391;46.742;11.636;2022-10-31T03:14:33;6.60;99.90
2767;DHT22;1391;46.742;11.636;2022-10-31T03:17:06;6.60;99.90
2767;DHT22;1391;46.742;11.636;2022-10-31T03:19:41;6.50;99.90
2767;DHT22;1391;46.742;11.636;2022-10-31T03:22:16;6.50;99.90
2767;DHT22;1391;46.742;11.636;2022-10-31T03:24:45;6.70;99.90
2767;DHT22;1391;46.742;11.636;2022-10-31T03:27:17;6.40;99.90
2767;DHT22;1391;46.742;11.636;2022-10-31T03:29:48;6.00;99.90
2767;DHT22;1391;46.742;11.636;2022-10-31T03:32:20;6.40;99.90
2767;DHT22;1391;46.742;11.636;2022-10-31T03:34:51;6.60;99.90
2767;DHT22;1391;46.742;11.636;2022-10-31T03:37:21;6.80;99.90
2767;DHT22;1391;46.742;11.636;2022-10-31T03:39:49;6.40;99.90
2767;DHT22;1391;46.742;11.636;2022-10-31T03:42:20;6.70;99.90
2767;DHT22;1391;46.742;11.636;2022-10-31T03:44:53;6.40;99.90
2767;DHT22;1391;46.742;11.636;2022-10-31T03:47:24;6.50;99.90
2767;DHT22;1391;46.742;11.636;2022-10-31T03:49:54;6.50;99.90
2767;DHT22;1391;46.742;11.636;2022-10-31T03:52:25;6.50;99.90
2767;DHT22;1391;46.742;11.636;2022-10-31T03:54:56;6.40;99.90
2767;DHT22;1391;46.742;11.636;2022-10-31T03:57:27;6.50;99.90
2767;DHT22;1391;46.742;11.636;2022-10-31T04:00:00;6.50;99.90
2767;DHT22;1391;46.742;11.636;2022-10-31T04:02:32;6.40;99.90
2767;DHT22;1391;46.742;11.636;2022-10-31T04:05:04;6.40;99.90
2767;DHT22;1391;46.742;11.636;2022-10-31T04:07:36;6.60;99.90
2767;DHT22;1391;46.742;11.636;2022-10-31T04:10:09;6.10;99.90
2767;DHT22;1391;46.742;11.636;2022-10-31T04:12:39;6.40;99.90
2767;DHT22;1391;46.742;11.636;2022-10-31T04:15:08;6.30;99.90
2767;DHT22;1391;46.742;11.636;2022-10-31T04:17:39;6.00;99.90
2767;DHT22;1391;46.742;11.636;2022-10-31T04:20:09;6.10;99.90
2767;DHT22;1391;46.742;11.636;2022-10-31T04:22:37;6.60;99.90
2767;DHT22;1391;46.742;11.636;2022-10-31T04:25:06;6.20;99.90
2767;DHT22;1391;46.742;11.636;2022-10-31T04:27:34;6.10;99.90
2767;DHT22;1391;46.742;11.636;2022-10-31T04:30:01;6.60;99.90
2767;DHT22;1391;46.742;11.636;2022-10-31T04:32:29;6.40;99.90
2767;DHT22;1391;46.742;11.636;2022-10-31T04:34:56;6.60;99.90
2767;DHT22;1391;46.742;11.636;2022-10-31T04:37:25;6.50;99.90
2767;DHT22;1391;46.742;11.636;2022-10-31T04:39:52;6.20;99.90
2767;DHT22;1391;46.742;11.636;2022-10-31T04:42:19;6.10;99.90
2767;DHT22;1391;46.742;11.636;2022-10-31T04:44:46;6.00;99.90
2767;DHT22;1391;46.742;11.636;2022-10-31T04:47:13;6.10;99.90
2767;DHT22;1391;46.742;11.636;2022-10-31T04:49:41;6.30;99.90
2767;DHT22;1391;46.742;11.636;2022-10-31T04:52:08;6.40;99.90
2767;DHT22;1391;46.742;11.636;2022-10-31T04:54:36;6.30;99.90
2767;DHT22;1391;46.742;11.636;2022-10-31T04:57:04;5.70;99.90
2767;DHT22;1391;46.742;11.636;2022-10-31T04:59:31;6.10;99.90
2767;DHT22;1391;46.742;11.636;2022-10-31T05:01:58;6.00;99.90
2767;DHT22;1391;46.742;11.636;2022-10-31T05:04:25;5.80;99.90
2767;DHT22;1391;46.742;11.636;2022-10-31T05:06:52;5.80;99.90
2767;DHT22;1391;46.742;11.636;2022-10-31T05:09:19;5.90;99.90
2767;DHT22;1391;46.742;11.636;2022-10-31T05:11:48;5.70;99.90
2767;DHT22;1391;46.742;11.636;2022-10-31T05:14:15;5.80;99.90
2767;DHT22;1391;46.742;11.636;2022-10-31T05:16:43;5.80;99.90
2767;DHT22;1391;46.742;11.636;2022-10-31T05:19:10;5.80;99.90
2767;DHT22;1391;46.742;11.636;2022-10-31T05:21:37;5.80;99.90
2767;DHT22;1391;46.742;11.636;2022-10-31T05:24:05;5.80;99.90
2767;DHT22;1391;46.742;11.636;2022-10-31T05:26:33;5.90;99.90
2767;DHT22;1391;46.742;11.636;2022-10-31T05:29:01;5.70;99.90
2767;DHT22;1391;46.742;11.636;2022-10-31T05:31:28;5.80;99.90
2767;DHT22;1391;46.742;11.636;2022-10-31T05:33:56;5.80;99.90
2767;DHT22;1391;46.742;11.636;2022-10-31T05:36:23;5.80;99.90
2767;DHT22;1391;46.742;11.636;2022-10-31T05:38:50;5.80;99.90
2767;DHT22;1391;46.742;11.636;2022-10-31T05:41:18;5.80;99.90
2767;DHT22;1391;46.742;11.636;2022-10-31T05:43:45;5.90;99.90
2767;DHT22;1391;46.742;11.636;2022-10-31T05:46:14;6.10;99.90
2767;DHT22;1391;46.742;11.636;2022-10-31T05:48:41;6.00;99.90
2767;DHT22;1391;46.742;11.636;2022-10-31T05:51:08;5.90;99.90
2767;DHT22;1391;46.742;11.636;2022-10-31T05:53:35;6.10;99.90
2767;DHT22;1391;46.742;11.636;2022-10-31T05:56:03;6.30;99.90
2767;DHT22;1391;46.742;11.636;2022-10-31T05:58:31;6.20;99.90
2767;DHT22;1391;46.742;11.636;2022-10-31T06:00:58;6.00;99.90
2767;DHT22;1391;46.742;11.636;2022-10-31T06:03:27;6.00;99.90
2767;DHT22;1391;46.742;11.636;2022-10-31T06:05:55;5.80;99.90
2767;DHT22;1391;46.742;11.636;2022-10-31T06:08:22;6.10;99.90
2767;DHT22;1391;46.742;11.636;2022-10-31T06:10:49;6.30;99.90
2767;DHT22;1391;46.742;11.636;2022-10-31T06:13:18;6.30;99.90
2767;DHT22;1391;46.742;11.636;2022-10-31T06:15:45;6.20;99.90
2767;DHT22;1391;46.742;11.636;2022-10-31T06:18:12;6.00;99.90
2767;DHT22;1391;46.742;11.636;2022-10-31T06:20:41;6.30;99.90
2767;DHT22;1391;46.742;11.636;2022-10-31T06:23:08;6.20;99.90
2767;DHT22;1391;46.742;11.636;2022-10-31T06:25:35;6.60;99.90
2767;DHT22;1391;46.742;11.636;2022-10-31T06:28:03;6.20;99.90
2767;DHT22;1391;46.742;11.636;2022-10-31T06:30:30;6.10;99.90
2767;DHT22;1391;46.742;11.636;2022-10-31T06:33:02;6.30;99.90
2767;DHT22;1391;46.742;11.636;2022-10-31T06:35:30;6.30;99.90
2767;DHT22;1391;46.742;11.636;2022-10-31T06:37:59;6.30;99.90
2767;DHT22;1391;46.742;11.636;2022-10-31T06:40:26;6.30;99.90
2767;DHT22;1391;46.742;11.636;2022-10-31T06:42:57;6.50;99.90
2767;DHT22;1391;46.742;11.636;2022-10-31T06:45:25;6.40;99.90
2767;DHT22;1391;46.742;11.636;2022-10-31T06:47:52;6.60;99.90
2767;DHT22;1391;46.742;11.636;2022-10-31T06:50:20;6.40;99.90
2767;DHT22;1391;46.742;11.636;2022-10-31T06:52:51;6.80;99.90
2767;DHT22;1391;46.742;11.636;2022-10-31T06:55:20;6.70;99.90
2767;DHT22;1391;46.742;11.636;2022-10-31T06:57:51;6.90;99.90
2767;DHT22;1391;46.742;11.636;2022-10-31T07:00:19;6.60;99.90
2767;DHT22;1391;46.742;11.636;2022-10-31T07:02:53;6.80;99.90
2767;DHT22;1391;46.742;11.636;2022-10-31T07:05:22;6.70;99.90
2767;DHT22;1391;46.742;11.636;2022-10-31T07:07:52;7.00;99.90
2767;DHT22;1391;46.742;11.636;2022-10-31T07:10:22;6.50;99.90
2767;DHT22;1391;46.742;11.636;2022-10-31T07:12:54;6.60;99.90
2767;DHT22;1391;46.742;11.636;2022-10-31T07:15:22;6.70;99.90
2767;DHT22;1391;46.742;11.636;2022-10-31T07:17:49;7.00;99.90
2767;DHT22;1391;46.742;11.636;2022-10-31T07:20:17;7.30;99.90
2767;DHT22;1391;46.742;11.636;2022-10-31T07:22:44;7.70;99.90
2767;DHT22;1391;46.742;11.636;2022-10-31T07:25:12;8.60;99.90
2767;DHT22;1391;46.742;11.636;2022-10-31T07:27:42;8.80;99.90
2767;DHT22;1391;46.742;11.636;2022-10-31T07:30:11;9.20;99.90
2767;DHT22;1391;46.742;11.636;2022-10-31T07:32:39;9.80;99.90
2767;DHT22;1391;46.742;11.636;2022-10-31T07:35:08;9.80;99.90
2767;DHT22;1391;46.742;11.636;2022-10-31T07:37:36;9.90;99.90
2767;DHT22;1391;46.742;11.636;2022-10-31T07:40:05;9.80;99.90
2767;DHT22;1391;46.742;11.636;2022-10-31T07:42:34;10.00;99.90
2767;DHT22;1391;46.742;11.636;2022-10-31T07:45:05;10.30;99.90
2767;DHT22;1391;46.742;11.636;2022-10-31T07:47:38;10.80;99.90
2767;DHT22;1391;46.742;11.636;2022-10-31T07:50:06;10.90;99.90
2767;DHT22;1391;46.742;11.636;2022-10-31T07:52:34;10.80;99.90
2767;DHT22;1391;46.742;11.636;2022-10-31T07:55:01;10.90;99.90
2767;DHT22;1391;46.742;11.636;2022-10-31T07:57:29;10.90;99.90
2767;DHT22;1391;46.742;11.636;2022-10-31T07:59:56;11.20;99.90
2767;DHT22;1391;46.742;11.636;2022-10-31T08:02:25;11.40;99.90
2767;DHT22;1391;46.742;11.636;2022-10-31T08:04:53;11.40;99.90
2767;DHT22;1391;46.742;11.636;2022-10-31T08:07:20;11.40;99.90
2767;DHT22;1391;46.742;11.636;2022-10-31T08:09:47;11.70;99.90
2767;DHT22;1391;46.742;11.636;2022-10-31T08:12:15;11.80;99.90
2767;DHT22;1391;46.742;11.636;2022-10-31T08:14:42;11.90;99.40
2767;DHT22;1391;46.742;11.636;2022-10-31T08:17:10;12.30;99.00
2767;DHT22;1391;46.742;11.636;2022-10-31T08:19:39;12.10;97.00
2767;DHT22;1391;46.742;11.636;2022-10-31T08:22:06;12.50;98.10
2767;DHT22;1391;46.742;11.636;2022-10-31T08:24:34;12.10;98.60
2767;DHT22;1391;46.742;11.636;2022-10-31T08:27:01;12.90;99.20
2767;DHT22;1391;46.742;11.636;2022-10-31T08:29:28;12.60;96.60
2767;DHT22;1391;46.742;11.636;2022-10-31T08:31:57;12.20;94.30
2767;DHT22;1391;46.742;11.636;2022-10-31T08:34:24;12.30;94.60
2767;DHT22;1391;46.742;11.636;2022-10-31T08:36:53;12.70;94.50
2767;DHT22;1391;46.742;11.636;2022-10-31T08:39:20;12.10;92.60
2767;DHT22;1391;46.742;11.636;2022-10-31T08:41:48;12.70;92.50
2767;DHT22;1391;46.742;11.636;2022-10-31T08:44:15;13.40;91.90
2767;DHT22;1391;46.742;11.636;2022-10-31T08:46:43;13.30;91.50
2767;DHT22;1391;46.742;11.636;2022-10-31T08:49:10;13.10;91.60
2767;DHT22;1391;46.742;11.636;2022-10-31T08:51:37;13.40;87.90
2767;DHT22;1391;46.742;11.636;2022-10-31T08:54:06;13.20;90.00
2767;DHT22;1391;46.742;11.636;2022-10-31T08:56:33;13.40;90.40
2767;DHT22;1391;46.742;11.636;2022-10-31T08:59:00;13.70;86.10
2767;DHT22;1391;46.742;11.636;2022-10-31T09:01:27;14.10;85.90
2767;DHT22;1391;46.742;11.636;2022-10-31T09:03:55;14.10;85.20
2767;DHT22;1391;46.742;11.636;2022-10-31T09:06:22;13.70;83.00
2767;DHT22;1391;46.742;11.636;2022-10-31T09:08:49;14.40;80.70
2767;DHT22;1391;46.742;11.636;2022-10-31T09:11:17;15.20;79.10
2767;DHT22;1391;46.742;11.636;2022-10-31T09:13:44;15.20;77.00
2767;DHT22;1391;46.742;11.636;2022-10-31T09:16:12;14.70;75.90
2767;DHT22;1391;46.742;11.636;2022-10-31T09:18:39;14.60;77.60
2767;DHT22;1391;46.742;11.636;2022-10-31T09:21:07;15.00;75.60
2767;DHT22;1391;46.742;11.636;2022-10-31T09:23:34;15.20;74.70
2767;DHT22;1391;46.742;11.636;2022-10-31T09:26:02;15.60;74.20
2767;DHT22;1391;46.742;11.636;2022-10-31T09:28:31;15.60;72.70
2767;DHT22;1391;46.742;11.636;2022-10-31T09:30:58;15.70;71.40
2767;DHT22;1391;46.742;11.636;2022-10-31T09:33:26;15.70;68.30
2767;DHT22;1391;46.742;11.636;2022-10-31T09:35:53;15.70;69.40
2767;DHT22;1391;46.742;11.636;2022-10-31T09:38:21;16.50;68.80
2767;DHT22;1391;46.742;11.636;2022-10-31T09:40:52;15.80;69.50
2767;DHT22;1391;46.742;11.636;2022-10-31T09:43:25;15.20;68.40
2767;DHT22;1391;46.742;11.636;2022-10-31T09:46:02;16.10;69.00
2767;DHT22;1391;46.742;11.636;2022-10-31T09:48:43;16.60;69.80
2767;DHT22;1391;46.742;11.636;2022-10-31T09:51:18;16.50;66.30
2767;DHT22;1391;46.742;11.636;2022-10-31T09:53:51;16.70;66.70
2767;DHT22;1391;46.742;11.636;2022-10-31T09:56:21;16.50;63.10
2767;DHT22;1391;46.742;11.636;2022-10-31T09:58:51;16.40;63.10
2767;DHT22;1391;46.742;11.636;2022-10-31T10:01:32;17.20;62.40
2767;DHT22;1391;46.742;11.636;2022-10-31T10:04:17;17.30;60.90
2767;DHT22;1391;46.742;11.636;2022-10-31T10:06:53;17.20;62.80
2767;DHT22;1391;46.742;11.636;2022-10-31T10:09:25;17.20;60.50
2767;DHT22;1391;46.742;11.636;2022-10-31T10:12:02;17.30;60.20
2767;DHT22;1391;46.742;11.636;2022-10-31T10:14:56;17.30;60.10
2767;DHT22;1391;46.742;11.636;2022-10-31T10:17:40;17.10;58.60
2767;DHT22;1391;46.742;11.636;2022-10-31T10:20:18;17.40;58.30
2767;DHT22;1391;46.742;11.636;2022-10-31T10:22:57;17.10;60.00
2767;DHT22;1391;46.742;11.636;2022-10-31T10:25:34;17.10;59.40
2767;DHT22;1391;46.742;11.636;2022-10-31T10:28:13;16.60;60.80
2767;DHT22;1391;46.742;11.636;2022-10-31T10:30:46;16.50;61.10
2767;DHT22;1391;46.742;11.636;2022-10-31T10:33:20;16.60;60.70
2767;DHT22;1391;46.742;11.636;2022-10-31T10:35:53;16.80;59.40
2767;DHT22;1391;46.742;11.636;2022-10-31T10:38:26;16.50;59.70
2767;DHT22;1391;46.742;11.636;2022-10-31T10:40:55;16.70;59.50
2767;DHT22;1391;46.742;11.636;2022-10-31T10:43:28;16.70;59.40
2767;DHT22;1391;46.742;11.636;2022-10-31T10:46:07;16.70;59.60
2767;DHT22;1391;46.742;11.636;2022-10-31T10:49:15;17.10;59.50
2767;DHT22;1391;46.742;11.636;2022-10-31T10:51:46;17.20;59.80
2767;DHT22;1391;46.742;11.636;2022-10-31T10:54:39;17.20;60.50
2767;DHT22;1391;46.742;11.636;2022-10-31T10:57:37;17.30;57.40
2767;DHT22;1391;46.742;11.636;2022-10-31T11:00:18;17.40;56.30
2767;DHT22;1391;46.742;11.636;2022-10-31T11:02:46;17.50;54.70
2767;DHT22;1391;46.742;11.636;2022-10-31T11:05:23;17.70;55.60
2767;DHT22;1391;46.742;11.636;2022-10-31T11:07:52;17.90;54.10
2767;DHT22;1391;46.742;11.636;2022-10-31T11:10:19;18.00;55.00
2767;DHT22;1391;46.742;11.636;2022-10-31T11:13:00;17.80;54.00
2767;DHT22;1391;46.742;11.636;2022-10-31T11:15:36;17.90;54.40
2767;DHT22;1391;46.742;11.636;2022-10-31T11:18:05;17.90;51.70
2767;DHT22;1391;46.742;11.636;2022-10-31T11:20:35;19.20;56.90
2767;DHT22;1391;46.742;11.636;2022-10-31T11:23:17;19.20;59.40
2767;DHT22;1391;46.742;11.636;2022-10-31T11:25:50;19.60;53.60
2767;DHT22;1391;46.742;11.636;2022-10-31T11:28:18;20.10;51.00
2767;DHT22;1391;46.742;11.636;2022-10-31T11:30:49;20.00;52.60
2767;DHT22;1391;46.742;11.636;2022-10-31T11:33:24;20.70;45.60
2767;DHT22;1391;46.742;11.636;2022-10-31T11:35:56;20.10;48.50
2767;DHT22;1391;46.742;11.636;2022-10-31T11:38:29;19.30;46.10
2767;DHT22;1391;46.742;11.636;2022-10-31T11:41:08;19.50;48.20
2767;DHT22;1391;46.742;11.636;2022-10-31T11:43:38;20.00;47.20
2767;DHT22;1391;46.742;11.636;2022-10-31T11:46:17;19.40;48.40
2767;DHT22;1391;46.742;11.636;2022-10-31T11:48:48;19.60;51.30
2767;DHT22;1391;46.742;11.636;2022-10-31T11:51:23;19.90;50.40
2767;DHT22;1391;46.742;11.636;2022-10-31T11:53:55;19.90;44.40
2767;DHT22;1391;46.742;11.636;2022-10-31T11:56:24;20.00;50.20
2767;DHT22;1391;46.742;11.636;2022-10-31T11:58:56;20.20;44.30
2767;DHT22;1391;46.742;11.636;2022-10-31T12:01:26;20.00;46.60
2767;DHT22;1391;46.742;11.636;2022-10-31T12:04:01;20.50;48.60
2767;DHT22;1391;46.742;11.636;2022-10-31T12:06:35;19.90;41.80
2767;DHT22;1391;46.742;11.636;2022-10-31T12:09:18;20.00;42.50
2767;DHT22;1391;46.742;11.636;2022-10-31T12:11:59;20.20;43.30
2767;DHT22;1391;46.742;11.636;2022-10-31T12:14:59;19.90;41.80
2767;DHT22;1391;46.742;11.636;2022-10-31T12:17:38;20.00;43.10
2767;DHT22;1391;46.742;11.636;2022-10-31T12:20:20;19.90;41.70
2767;DHT22;1391;46.742;11.636;2022-10-31T12:23:02;19.90;41.70
2767;DHT22;1391;46.742;11.636;2022-10-31T12:25:39;19.90;42.40
2767;DHT22;1391;46.742;11.636;2022-10-31T12:28:40;19.60;41.40
2767;DHT22;1391;46.742;11.636;2022-10-31T12:31:24;19.40;44.00
2767;DHT22;1391;46.742;11.636;2022-10-31T12:37:25;20.00;49.00
2767;DHT22;1391;46.742;11.636;2022-10-31T12:40:35;19.40;45.00
2767;DHT22;1391;46.742;11.636;2022-10-31T12:43:33;19.30;48.50
2767;DHT22;1391;46.742;11.636;2022-10-31T12:46:04;19.40;48.40
2767;DHT22;1391;46.742;11.636;2022-10-31T12:48:52;19.60;48.50
2767;DHT22;1391;46.742;11.636;2022-10-31T12:51:42;19.20;48.90
2767;DHT22;1391;46.742;11.636;2022-10-31T12:54:24;19.20;48.30
2767;DHT22;1391;46.742;11.636;2022-10-31T12:57:06;19.30;48.50
2767;DHT22;1391;46.742;11.636;2022-10-31T12:59:42;19.50;54.40
2767;DHT22;1391;46.742;11.636;2022-10-31T13:02:18;19.30;51.20
2767;DHT22;1391;46.742;11.636;2022-10-31T13:04:51;19.30;52.90
2767;DHT22;1391;46.742;11.636;2022-10-31T13:07:24;19.30;52.20
2767;DHT22;1391;46.742;11.636;2022-10-31T13:09:58;19.20;51.60
2767;DHT22;1391;46.742;11.636;2022-10-31T13:12:32;19.20;53.40
2767;DHT22;1391;46.742;11.636;2022-10-31T13:15:05;19.40;56.90
2767;DHT22;1391;46.742;11.636;2022-10-31T13:17:43;19.30;53.30
2767;DHT22;1391;46.742;11.636;2022-10-31T13:20:21;18.70;54.00
2767;DHT22;1391;46.742;11.636;2022-10-31T13:22:55;18.80;57.10
2767;DHT22;1391;46.742;11.636;2022-10-31T13:25:27;18.20;56.50
2767;DHT22;1391;46.742;11.636;2022-10-31T13:28:00;18.20;56.20
2767;DHT22;1391;46.742;11.636;2022-10-31T13:30:33;18.10;54.80
2767;DHT22;1391;46.742;11.636;2022-10-31T13:33:05;18.10;55.70
2767;DHT22;1391;46.742;11.636;2022-10-31T13:35:44;18.10;56.20
2767;DHT22;1391;46.742;11.636;2022-10-31T13:38:27;18.10;57.40
2767;DHT22;1391;46.742;11.636;2022-10-31T13:41:00;18.10;57.00
2767;DHT22;1391;46.742;11.636;2022-10-31T13:43:39;18.00;55.60
2767;DHT22;1391;46.742;11.636;2022-10-31T13:46:23;18.00;58.50
2767;DHT22;1391;46.742;11.636;2022-10-31T13:48:52;18.00;59.50
2767;DHT22;1391;46.742;11.636;2022-10-31T13:51:28;18.00;58.40
2767;DHT22;1391;46.742;11.636;2022-10-31T13:53:58;18.00;63.00
2767;DHT22;1391;46.742;11.636;2022-10-31T13:56:28;18.00;63.60
2767;DHT22;1391;46.742;11.636;2022-10-31T13:59:20;17.50;62.10
2767;DHT22;1391;46.742;11.636;2022-10-31T14:01:54;17.40;64.00
2767;DHT22;1391;46.742;11.636;2022-10-31T14:04:24;17.40;65.80
2767;DHT22;1391;46.742;11.636;2022-10-31T14:06:58;17.50;64.60
2767;DHT22;1391;46.742;11.636;2022-10-31T14:09:34;17.30;62.20
2767;DHT22;1391;46.742;11.636;2022-10-31T14:12:07;17.30;65.50
2767;DHT22;1391;46.742;11.636;2022-10-31T14:14:49;16.80;63.00
2767;DHT22;1391;46.742;11.636;2022-10-31T14:17:21;16.80;66.10
2767;DHT22;1391;46.742;11.636;2022-10-31T14:19:59;17.00;67.40
2767;DHT22;1391;46.742;11.636;2022-10-31T14:22:32;17.00;69.30
2767;DHT22;1391;46.742;11.636;2022-10-31T14:25:24;16.90;64.90
2767;DHT22;1391;46.742;11.636;2022-10-31T14:27:52;16.80;65.10
2767;DHT22;1391;46.742;11.636;2022-10-31T14:30:23;16.60;69.00
2767;DHT22;1391;46.742;11.636;2022-10-31T14:32:54;16.50;70.40
2767;DHT22;1391;46.742;11.636;2022-10-31T14:35:29;16.30;72.40
2767;DHT22;1391;46.742;11.636;2022-10-31T14:38:21;16.40;73.90
2767;DHT22;1391;46.742;11.636;2022-10-31T14:41:13;16.20;73.50
2767;DHT22;1391;46.742;11.636;2022-10-31T14:47:10;15.60;74.80
2767;DHT22;1391;46.742;11.636;2022-10-31T14:50:17;15.70;76.90
2767;DHT22;1391;46.742;11.636;2022-10-31T14:52:51;15.80;76.80
2767;DHT22;1391;46.742;11.636;2022-10-31T14:55:21;15.10;78.70
2767;DHT22;1391;46.742;11.636;2022-10-31T14:57:54;15.10;81.10
2767;DHT22;1391;46.742;11.636;2022-10-31T15:00:23;15.20;80.80
2767;DHT22;1391;46.742;11.636;2022-10-31T15:03:03;15.20;80.10
2767;DHT22;1391;46.742;11.636;2022-10-31T15:05:34;15.00;80.90
2767;DHT22;1391;46.742;11.636;2022-10-31T15:08:14;15.30;80.20
2767;DHT22;1391;46.742;11.636;2022-10-31T15:10:54;14.90;81.20
2767;DHT22;1391;46.742;11.636;2022-10-31T15:13:22;14.90;82.50
2767;DHT22;1391;46.742;11.636;2022-10-31T15:15:51;14.50;86.80
2767;DHT22;1391;46.742;11.636;2022-10-31T15:18:23;14.50;88.00
2767;DHT22;1391;46.742;11.636;2022-10-31T15:20:53;14.40;87.50
2767;DHT22;1391;46.742;11.636;2022-10-31T15:23:23;14.40;91.70
2767;DHT22;1391;46.742;11.636;2022-10-31T15:25:58;14.40;91.90
2767;DHT22;1391;46.742;11.636;2022-10-31T15:28:27;14.70;91.50
2767;DHT22;1391;46.742;11.636;2022-10-31T15:30:56;14.40;91.30
2767;DHT22;1391;46.742;11.636;2022-10-31T15:33:27;14.30;90.80
2767;DHT22;1391;46.742;11.636;2022-10-31T15:35:56;14.40;91.90
2767;DHT22;1391;46.742;11.636;2022-10-31T15:38:25;14.20;93.00
2767;DHT22;1391;46.742;11.636;2022-10-31T15:40:56;14.50;92.50
2767;DHT22;1391;46.742;11.636;2022-10-31T15:43:27;14.50;92.70
2767;DHT22;1391;46.742;11.636;2022-10-31T15:46:00;14.30;92.70
2767;DHT22;1391;46.742;11.636;2022-10-31T15:48:30;14.00;92.10
2767;DHT22;1391;46.742;11.636;2022-10-31T15:51:00;13.90;92.30
2767;DHT22;1391;46.742;11.636;2022-10-31T15:53:36;13.90;92.40
2767;DHT22;1391;46.742;11.636;2022-10-31T15:56:11;14.20;94.50
2767;DHT22;1391;46.742;11.636;2022-10-31T15:58:43;13.50;95.80
2767;DHT22;1391;46.742;11.636;2022-10-31T16:01:22;13.70;96.90
2767;DHT22;1391;46.742;11.636;2022-10-31T16:04:05;13.40;96.90
2767;DHT22;1391;46.742;11.636;2022-10-31T16:06:58;13.40;98.00
2767;DHT22;1391;46.742;11.636;2022-10-31T16:09:27;13.70;96.50
2767;DHT22;1391;46.742;11.636;2022-10-31T16:11:56;13.50;95.50
2767;DHT22;1391;46.742;11.636;2022-10-31T16:14:26;13.60;94.70
2767;DHT22;1391;46.742;11.636;2022-10-31T16:16:57;13.80;94.80
2767;DHT22;1391;46.742;11.636;2022-10-31T16:19:29;13.50;94.40
2767;DHT22;1391;46.742;11.636;2022-10-31T16:22:03;13.40;93.70
2767;DHT22;1391;46.742;11.636;2022-10-31T16:24:37;13.50;95.00
2767;DHT22;1391;46.742;11.636;2022-10-31T16:27:18;13.10;96.00
2767;DHT22;1391;46.742;11.636;2022-10-31T16:29:49;12.80;98.40
2767;DHT22;1391;46.742;11.636;2022-10-31T16:32:51;12.60;99.90
2767;DHT22;1391;46.742;11.636;2022-10-31T16:35:25;12.70;99.90